De Queen, Arkansas
Current Conditions -  °F | °C
As of 5:53 PM on Friday 28 Nov 2014 (Local Time) from KDEQ Reporting Station
Clear Clear  
Wind Chill: 57°   Ceiling: Unl
Heat Index: 57°   Visibility: 10mi
Dew Point: 44°   Wind: 5mph
Humidity: 62%   Direction: 150°SSE
Pressure: 30.05"   Gusts: NA
Location:  34.04°N, 94.34°W
Report Text: KDEQ 282353Z AUTO 15004KT 10SM CLR 14/07 A3005 RMK AO2 SLP175 T01390067 10183 20133 55010
Loading
Personal Weather Stations






























Interactive Weather Map New forecast layout! Learn more

10-Day Weather Forecast

Advertisements
Track Severe Weather on mobile